GEMLLXGB

Guest
Details From GEML - MELILLA
To LXGB - Gibraltar
Flight Number -
Tags generated
Created
Modified
Stats Distance 128 nm / 237 km
Max Altitude 5,700 ft / 1,737 m
Waypoints 3
Social Downloads 0
Likes 0
Share VATSIM

Download

Looking for another format? Having issues loading an existing format? Contact us
Advertisement - Login to hide

Notes

Basic altitude profile: - Ascent Rate: 2500ft/min - Ascent Speed: 250kts - Cruise Altitude: 35000ft - Cruise Speed: 420kts - Descent Rate: 1500ft/min - Descent Speed: 250kts Options: - Use NATs: yes - Use PACOTS: yes - Use low airways: yes - Use high airways: yes

Route

GEML GIVRA LXGB

ID Type Via Altitude Latitude Longitude Leg Dist Tot Dist Heading (true) Name
O GEML APT - 0 ft / 0 m 35.28037˚ -2.95671˚ - 0 nm - MELILLA
GIVRA FIX - 5,700 ft / 1,737 m 35.93083˚ -4.87361˚ 101 nm 101 nm 293° / 292° -
O LXGB APT - 0 ft / 0 m 36.15121˚ -5.34966˚ 26 nm 128 nm 300° / 300° Gibraltar

Altitude Profile

Advertisement - Login to hide

GEML

Details ICAO GEML (MLN)
Name MELILLA
Region Ceuta and Melilla
Timezone Africa/Casablanca (UTC+0.0)
Stats Elevation 156 ft / 48 m (AMSL)
Location 35.280374° -2.956708°
Runways 1
Magnetic Variation 0.455° W

METAR

GEML 111900Z AUTO 26009G19KT 200V300 CAVOK 14/07 Q1007

Decode

TAF

TAF GEML 111400Z 1115/1215 26009KT 9999 FEW012 SCT025 TX17/1214Z TN09/1206Z PROB40 TEMPO 1115/1117 28015G28KT 4000 -RA

Decode

Departure Runways

ID Width Length Bearing (true) Bearing (mag) Surface Threshold Offset Overrun Length
15 148 ft / 45 m 4,811 ft / 1,466 m 146.39° 146.84° Asphalt 755 ft / 230 m 0 ft / 0 m
33 148 ft / 45 m 4,811 ft / 1,466 m 326.40° 326.85° Asphalt 0 ft / 0 m 0 ft / 0 m

LXGB

Details ICAO LXGB (GIB)
Name Gibraltar
Region Gibralter
Timezone Europe/Gibraltar (UTC+1.0)
Stats Elevation 15 ft / 5 m (AMSL)
Location 36.151209° -5.349664°
Runways 1
Magnetic Variation 1.124° W

METAR

LXGB 111850Z AUTO 24011KT 9999 // NCD 14/07 Q1007

Decode

TAF

Not found

Destination Runways

ID Width Length Bearing (true) Bearing (mag) Surface Threshold Offset Overrun Length
27 151 ft / 46 m 5,992 ft / 1,826 m 267.56° 268.68° Asphalt 367 ft / 112 m 89 ft / 27 m
9 151 ft / 46 m 5,992 ft / 1,826 m 87.54° 88.66° Asphalt 299 ft / 91 m 52 ft / 16 m

Popular Alternatives